Time;durP1;ratioP1;P1;durP2;ratioP2;P2;SDS_P1;SDS_P2;PMS_P1;PMS_P2;Temp;Humidity;BMP_temperature;BMP_pressure;BME280_temperature;BME280_humidity;BME280_pressure;Samples;Min_cycle;Max_cycle;Signal;HPM_P1;HPM_P2
2021/01/17 00:02:16;;;;;;;35.42;20.30;;;-1.30;95.10;;;;;;6372854;27;20019;-77
2021/01/17 00:05:21;;;;;;;24.50;15.65;;;-2.60;94.40;;;;;;6372500;28;20114;-78
2021/01/17 00:08:22;;;;;;;26.27;15.57;;;-2.40;94.90;;;;;;6354677;27;20019;-77
2021/01/17 00:11:22;;;;;;;22.10;13.50;;;-1.90;99.90;;;;;;6376272;27;20373;-76
2021/01/17 00:14:23;;;;;;;20.85;13.85;;;-0.60;95.60;;;;;;6377628;27;20346;-78
2021/01/17 00:17:24;;;;;;;17.75;11.20;;;-2.50;95.60;;;;;;6377598;27;20042;-76
2021/01/17 00:20:25;;;;;;;18.27;11.35;;;-2.40;95.60;;;;;;6377441;27;20054;-78
2021/01/17 00:23:25;;;;;;;19.38;12.00;;;-2.20;95.90;;;;;;6377725;27;20107;-77
2021/01/17 00:26:26;;;;;;;17.58;11.18;;;-2.40;99.90;;;;;;6377284;27;20031;-79
2021/01/17 00:29:26;;;;;;;16.48;10.98;;;-0.60;99.90;;;;;;6377304;27;20410;-79
2021/01/17 00:32:27;;;;;;;16.38;9.73;;;-1.40;95.80;;;;;;6377414;27;20023;-76
2021/01/17 00:35:29;;;;;;;14.93;10.15;;;-1.60;95.50;;;;;;6377071;27;20062;-79
2021/01/17 00:38:29;;;;;;;12.67;8.80;;;-0.50;96.10;;;;;;6377254;27;20056;-77
2021/01/17 00:41:31;;;;;;;12.27;8.30;;;-1.50;95.40;;;;;;6376875;27;20019;-77
2021/01/17 00:44:31;;;;;;;9.50;7.00;;;-1.70;95.70;;;;;;6377176;27;20402;-77
2021/01/17 00:47:32;;;;;;;12.07;6.82;;;-1.50;99.90;;;;;;6376796;27;20019;-77
2021/01/17 00:50:33;;;;;;;7.20;5.10;;;-0.50;95.60;;;;;;6376950;27;20074;-77
2021/01/17 00:53:33;;;;;;;10.38;6.57;;;-1.40;95.80;;;;;;6376777;27;20023;-78
2021/01/17 00:56:34;;;;;;;8.40;6.15;;;0.40;95.50;;;;;;6376798;27;20098;-76
2021/01/17 00:59:34;;;;;;;6.80;4.97;;;-0.20;95.60;;;;;;6376781;27;20418;-77
2021/01/17 01:02:35;;;;;;;5.80;4.20;;;-0.50;99.90;;;;;;6376443;27;20072;-79
2021/01/17 01:05:36;;;;;;;4.57;3.50;;;1.30;99.90;;;;;;6376259;27;20088;-77
2021/01/17 01:08:36;;;;;;;3.35;2.58;;;-0.60;95.50;;;;;;6376288;27;20025;-77
2021/01/17 01:11:37;;;;;;;2.83;2.55;;;-0.40;95.50;;;;;;6376186;27;20077;-77
2021/01/17 01:14:38;;;;;;;3.70;2.60;;;-0.30;96.20;;;;;;6376136;27;20023;-80
2021/01/17 01:17:38;;;;;;;3.40;2.70;;;0.10;95.60;;;;;;6376414;27;20027;-79
2021/01/17 01:20:41;;;;;;;2.67;2.20;;;0.00;95.80;;;;;;6357145;27;20027;-78
2021/01/17 01:23:42;;;;;;;3.33;2.50;;;0.70;95.80;;;;;;6376174;27;20090;-77
2021/01/17 01:26:44;;;;;;;2.30;2.10;;;1.40;95.20;;;;;;6375989;27;20095;-77
2021/01/17 01:29:44;;;;;;;2.67;2.35;;;1.20;95.50;;;;;;6375971;27;20455;-79
2021/01/17 01:32:49;;;;;;;2.97;2.50;;;1.30;95.10;;;;;;6375821;27;20031;-79
2021/01/17 01:35:50;;;;;;;3.50;2.53;;;1.90;95.10;;;;;;6375654;27;20023;-78
2021/01/17 01:38:50;;;;;;;3.67;3.00;;;0.50;99.90;;;;;;6375857;27;20055;-78
2021/01/17 01:41:51;;;;;;;3.28;2.67;;;0.70;94.50;;;;;;6375607;27;20106;-78
2021/01/17 01:44:52;;;;;;;3.50;2.75;;;1.70;95.00;;;;;;6375839;27;20023;-78
2021/01/17 01:47:52;;;;;;;3.00;2.30;;;1.00;94.50;;;;;;6375431;27;20373;-76
2021/01/17 01:50:53;;;;;;;3.00;2.50;;;1.70;95.00;;;;;;6375638;27;20039;-77
2021/01/17 01:53:57;;;;;;;2.92;2.58;;;0.60;99.90;;;;;;6340317;27;20063;-77
2021/01/17 01:56:57;;;;;;;2.55;2.25;;;0.80;99.90;;;;;;6375221;27;20031;-77
2021/01/17 01:59:58;;;;;;;2.70;2.22;;;2.40;94.70;;;;;;6356846;27;20345;-78
2021/01/17 02:02:59;;;;;;;5.25;2.72;;;1.90;94.10;;;;;;6339596;27;20127;-77
2021/01/17 02:06:03;;;;;;;2.08;1.88;;;1.40;94.30;;;;;;6375137;27;20047;-77
2021/01/17 02:09:28;;;;;;;2.90;2.42;;;0.60;93.10;;;;;;6374706;27;20107;-78
2021/01/17 02:12:30;;;;;;;2.75;2.25;;;0.70;92.90;;;;;;6334418;27;20031;-77
2021/01/17 02:15:34;;;;;;;2.88;2.50;;;2.10;94.00;;;;;;6356545;27;20019;-77
2021/01/17 02:18:40;;;;;;;2.65;2.40;;;1.70;93.70;;;;;;6356271;27;20535;-78
2021/01/17 02:21:42;;;;;;;3.35;2.67;;;0.70;94.00;;;;;;6356436;27;20388;-77
2021/01/17 02:24:57;;;;;;;3.83;3.00;;;0.60;99.90;;;;;;6356398;27;20019;-79
2021/01/17 02:27:59;;;;;;;3.17;2.78;;;1.50;99.40;;;;;;6356342;27;20053;-78
2021/01/17 02:31:00;;;;;;;3.25;2.63;;;0.60;93.70;;;;;;6356344;27;20027;-77
2021/01/17 02:34:01;;;;;;;2.53;2.20;;;0.70;93.80;;;;;;6338301;27;20080;-78
2021/01/17 02:37:14;;;;;;;2.25;2.05;;;0.60;93.60;;;;;;6356225;27;20058;-77
2021/01/17 02:40:24;;;;;;;;;;;0.70;93.00;;;;;;6357261;27;20110;-77
2021/01/17 02:43:25;;;;;;;2.88;2.42;;;1.10;97.60;;;;;;6374354;27;19907;-78
2021/01/17 02:46:25;;;;;;;3.85;3.10;;;0.80;93.40;;;;;;6356069;27;20072;-78
2021/01/17 02:49:26;;;;;;;3.20;2.90;;;1.10;93.20;;;;;;6355645;27;20125;-78
2021/01/17 02:52:42;;;;;;;5.15;3.63;;;1.00;93.50;;;;;;6373970;27;20031;-77
2021/01/17 02:55:43;;;;;;;3.78;2.95;;;0.90;99.90;;;;;;6340151;27;20559;-79
2021/01/17 02:58:48;;;;;;;3.88;3.03;;;0.90;99.00;;;;;;6338341;27;20034;-78
2021/01/17 03:01:49;;;;;;;4.05;3.22;;;2.00;93.90;;;;;;6373725;27;20027;-78
2021/01/17 03:04:55;;;;;;;3.38;3.08;;;1.90;93.60;;;;;;6338223;27;20046;-79
2021/01/17 03:07:57;;;;;;;3.67;3.08;;;1.80;94.00;;;;;;6355054;27;20024;-78
2021/01/17 03:10:57;;;;;;;3.47;3.10;;;0.50;93.20;;;;;;6373508;27;20031;-77
2021/01/17 03:13:58;;;;;;;3.92;3.40;;;1.70;99.40;;;;;;6373566;27;20019;-80
2021/01/17 03:16:58;;;;;;;4.68;3.22;;;2.20;94.20;;;;;;6355024;27;20357;-78
2021/01/17 03:19:59;;;;;;;3.60;3.00;;;0.60;93.40;;;;;;6354964;27;20023;-78
2021/01/17 03:23:00;;;;;;;3.65;2.97;;;1.20;94.00;;;;;;6354840;27;20026;-78
2021/01/17 03:26:00;;;;;;;3.60;2.80;;;0.40;93.40;;;;;;6373152;27;20068;-77
2021/01/17 03:29:01;;;;;;;3.45;3.00;;;0.50;93.80;;;;;;6373029;27;20449;-79
2021/01/17 03:32:02;;;;;;;3.58;2.80;;;0.60;99.90;;;;;;6373124;27;20064;-78
2021/01/17 03:35:02;;;;;;;2.60;2.40;;;0.40;93.30;;;;;;6373063;27;20027;-78
2021/01/17 03:38:03;;;;;;;3.13;2.65;;;0.60;93.80;;;;;;6373241;27;20514;-78
2021/01/17 03:41:04;;;;;;;3.00;2.70;;;0.50;93.10;;;;;;6372945;27;20384;-77
2021/01/17 03:44:04;;;;;;;2.95;2.55;;;0.60;93.40;;;;;;6354521;27;20051;-78
2021/01/17 03:47:06;;;;;;;3.15;2.60;;;0.70;98.30;;;;;;6372804;27;20025;-79
2021/01/17 03:50:07;;;;;;;3.33;2.63;;;0.80;98.70;;;;;;6372562;27;20035;-78
2021/01/17 03:53:07;;;;;;;3.75;2.80;;;0.70;93.20;;;;;;6372647;27;20433;-79
2021/01/17 03:56:08;;;;;;;3.35;2.90;;;0.70;93.10;;;;;;6372724;28;20080;-78
2021/01/17 03:59:09;;;;;;;3.10;2.63;;;0.60;93.40;;;;;;6372631;28;20103;-79
2021/01/17 04:02:09;;;;;;;3.17;2.53;;;2.70;93.50;;;;;;6372734;27;20334;-75
2021/01/17 04:05:10;;;;;;;2.60;2.40;;;2.30;93.70;;;;;;6372905;28;20126;-80
2021/01/17 04:08:12;;;;;;;3.15;2.40;;;0.80;99.90;;;;;;6372353;27;20057;-80
2021/01/17 04:11:12;;;;;;;3.35;2.70;;;2.10;93.30;;;;;;6372521;28;20539;-78
2021/01/17 04:14:13;;;;;;;3.00;2.42;;;1.30;93.30;;;;;;6372652;28;20019;-78
2021/01/17 04:17:13;;;;;;;3.70;2.97;;;2.10;93.20;;;;;;6372654;27;20019;-78
2021/01/17 04:20:15;;;;;;;2.72;2.40;;;0.80;93.10;;;;;;6372465;28;20448;-78
2021/01/17 04:23:15;;;;;;;2.72;2.03;;;0.80;99.90;;;;;;6372579;27;20022;-78
2021/01/17 04:26:18;;;;;;;3.03;2.30;;;1.50;98.40;;;;;;6372325;28;20437;-78
2021/01/17 04:29:18;;;;;;;2.92;2.40;;;2.30;93.30;;;;;;6372184;28;20027;-78
2021/01/17 04:32:19;;;;;;;3.40;2.67;;;0.80;92.50;;;;;;6353921;28;20033;-79
2021/01/17 04:35:19;;;;;;;3.78;2.63;;;0.80;92.80;;;;;;6372510;28;20476;-75
2021/01/17 04:38:20;;;;;;;3.15;2.05;;;1.40;92.80;;;;;;6372344;28;20053;-76
2021/01/17 04:41:21;;;;;;;2.10;1.70;;;1.00;92.80;;;;;;6372089;27;20437;-78
2021/01/17 04:44:21;;;;;;;2.40;1.98;;;1.00;92.80;;;;;;6337103;28;20038;-78
2021/01/17 04:47:22;;;;;;;1.90;1.80;;;0.80;92.50;;;;;;6336883;28;20023;-77
2021/01/17 04:50:22;;;;;;;2.42;2.22;;;1.30;93.00;;;;;;6371962;28;20096;-77
2021/01/17 04:53:23;;;;;;;2.55;2.15;;;0.90;92.70;;;;;;6372018;28;20031;-78
2021/01/17 04:56:37;;;;;;;2.20;2.00;;;2.70;93.50;;;;;;6338793;27;20026;-78
2021/01/17 04:59:46;;;;;;;2.88;2.40;;;1.00;93.00;;;;;;6376722;27;20023;-79
2021/01/17 05:02:54;;;;;;;2.35;2.15;;;1.00;92.70;;;;;;6358769;27;20023;-80
2021/01/17 05:06:14;;;;;;;2.35;2.15;;;1.60;93.30;;;;;;6358909;27;20123;-78
2021/01/17 05:09:19;;;;;;;2.65;2.30;;;1.00;99.90;;;;;;6376309;27;20054;-78
2021/01/17 05:12:20;;;;;;;2.10;1.90;;;2.50;99.40;;;;;;6358039;27;20441;-78
2021/01/17 05:15:22;;;;;;;2.15;1.95;;;2.50;94.10;;;;;;6341027;27;20024;-78
2021/01/17 05:18:23;;;;;;;2.78;2.17;;;2.40;93.80;;;;;;6376246;27;20023;-78
2021/01/17 05:21:23;;;;;;;2.20;1.77;;;2.30;94.00;;;;;;6376293;27;20046;-79
2021/01/17 05:24:24;;;;;;;2.05;1.90;;;0.80;93.40;;;;;;6340885;27;20099;-78
2021/01/17 05:27:25;;;;;;;2.75;2.33;;;2.40;94.30;;;;;;6357793;27;20030;-75
2021/01/17 05:30:25;;;;;;;2.80;2.50;;;0.90;94.00;;;;;;6375862;27;20449;-77
2021/01/17 05:33:29;;;;;;;2.78;2.45;;;0.90;93.90;;;;;;6376044;27;20056;-76
2021/01/17 05:36:30;;;;;;;2.55;2.15;;;1.10;94.00;;;;;;6376126;27;20075;-77
2021/01/17 05:39:31;;;;;;;2.45;2.25;;;0.80;93.90;;;;;;6375926;27;20374;-75
2021/01/17 05:42:33;;;;;;;2.47;2.15;;;0.80;94.00;;;;;;6376020;27;20027;-77
2021/01/17 05:45:33;;;;;;;3.28;2.78;;;0.80;99.90;;;;;;6375865;27;20024;-75
2021/01/17 05:48:34;;;;;;;3.17;2.78;;;0.60;93.70;;;;;;6376026;27;20046;-78
2021/01/17 05:51:34;;;;;;;3.05;2.60;;;0.70;94.00;;;;;;6375728;27;20405;-78
2021/01/17 05:54:35;;;;;;;3.45;2.65;;;1.80;94.10;;;;;;6375785;27;20033;-77
2021/01/17 05:57:36;;;;;;;4.20;3.80;;;2.70;94.40;;;;;;6340365;27;20052;-78
2021/01/17 06:00:37;;;;;;;3.00;2.70;;;;;;;;;;6375585;27;20034;-75
2021/01/17 06:03:37;;;;;;;2.90;2.42;;;0.80;97.90;;;;;;6375197;27;20016;-76
2021/01/17 06:06:38;;;;;;;2.72;2.30;;;0.70;99.90;;;;;;6356492;27;20026;-80
2021/01/17 06:09:39;;;;;;;2.53;2.33;;;2.30;94.00;;;;;;6339257;27;20030;-79
2021/01/17 06:12:39;;;;;;;3.38;2.58;;;2.40;94.10;;;;;;6357024;27;20019;-78
2021/01/17 06:15:40;;;;;;;3.13;2.60;;;2.30;93.90;;;;;;6375074;27;20023;-76
2021/01/17 06:18:41;;;;;;;3.42;2.53;;;2.50;94.10;;;;;;6374997;27;20023;-75
2021/01/17 06:21:47;;;;;;;2.97;2.40;;;1.10;99.90;;;;;;6356749;27;20023;-76
2021/01/17 06:24:48;;;;;;;3.33;2.70;;;1.40;93.30;;;;;;6357046;27;20015;-78
2021/01/17 06:27:48;;;;;;;3.72;2.40;;;1.10;93.40;;;;;;6323072;27;20019;-78
2021/01/17 06:30:53;;;;;;;2.50;2.30;;;0.80;92.90;;;;;;6374781;27;20070;-78
2021/01/17 06:34:13;;;;;;;2.08;1.90;;;2.00;93.40;;;;;;6357042;27;20027;-77
2021/01/17 06:37:14;;;;;;;2.58;2.25;;;1.00;92.90;;;;;;6374689;27;20042;-75
2021/01/17 06:40:15;;;;;;;2.30;2.10;;;2.20;93.20;;;;;;6374397;27;20072;-77
2021/01/17 06:43:15;;;;;;;2.50;2.30;;;1.60;93.30;;;;;;6374557;27;20023;-78
2021/01/17 06:46:16;;;;;;;4.07;3.28;;;0.90;92.80;;;;;;6374339;27;20023;-78
2021/01/17 06:49:21;;;;;;;2.50;2.30;;;2.30;93.50;;;;;;6374496;27;20039;-80
2021/01/17 06:52:22;;;;;;;2.70;2.40;;;1.50;99.90;;;;;;6355726;27;20054;-78
2021/01/17 06:55:22;;;;;;;2.13;1.98;;;2.50;93.50;;;;;;6374171;27;20055;-79
2021/01/17 06:58:23;;;;;;;2.35;2.15;;;1.00;93.20;;;;;;6373980;27;20027;-78
2021/01/17 07:01:28;;;;;;;2.65;2.42;;;1.00;93.10;;;;;;6338924;27;20449;-78
2021/01/17 07:04:57;;;;;;;2.55;2.03;;;0.90;93.30;;;;;;6373718;27;20528;-80
2021/01/17 07:08:03;;;;;;;2.50;2.00;;;1.40;99.90;;;;;;6347424;27;20031;-81
2021/01/17 07:11:44;;;;;;;3.42;2.00;;;1.10;93.00;;;;;;6373587;27;20464;-78
2021/01/17 07:14:45;;;;;;;2.30;2.10;;;1.00;92.90;;;;;;6355407;27;20054;-78
2021/01/17 07:17:45;;;;;;;2.40;2.20;;;1.00;99.90;;;;;;6355471;27;20368;-79
2021/01/17 07:20:50;;;;;;;2.78;2.40;;;1.30;98.60;;;;;;6338033;27;20034;-76
2021/01/17 07:23:51;;;;;;;2.58;2.20;;;1.80;93.70;;;;;;6373334;27;20019;-75
2021/01/17 07:27:15;;;;;;;2.60;2.17;;;1.00;93.20;;;;;;6338232;27;20019;-78
2021/01/17 07:30:20;;;;;;;2.60;2.40;;;1.40;93.50;;;;;;6373491;27;20468;-81
2021/01/17 07:33:42;;;;;;;2.35;2.10;;;0.80;99.90;;;;;;6373396;27;20158;-78
2021/01/17 07:36:48;;;;;;;2.30;2.10;;;0.90;93.20;;;;;;6373335;27;20030;-77
2021/01/17 07:39:50;;;;;;;2.78;2.45;;;2.20;93.80;;;;;;6373291;27;20114;-79
2021/01/17 07:42:50;;;;;;;2.40;2.20;;;0.80;93.30;;;;;;6338084;27;20023;-77
2021/01/17 07:45:52;;;;;;;3.70;2.63;;;2.40;93.50;;;;;;6338101;27;20514;-77
2021/01/17 07:48:53;;;;;;;3.50;2.80;;;1.10;99.90;;;;;;6373125;27;20056;-79
2021/01/17 07:51:53;;;;;;;2.88;2.58;;;2.70;93.10;;;;;;6337657;27;20102;-78
2021/01/17 07:54:54;;;;;;;3.72;3.42;;;2.80;93.00;;;;;;6354591;27;20022;-78
2021/01/17 07:57:55;;;;;;;9.85;5.30;;;2.40;92.60;;;;;;6354800;28;20022;-80
2021/01/17 08:00:55;;;;;;;4.82;4.05;;;2.40;93.00;;;;;;6373005;28;20045;-77
2021/01/17 08:04:02;;;;;;;4.75;4.15;;;1.30;92.80;;;;;;6372904;27;20061;-77
2021/01/17 08:07:03;;;;;;;6.22;4.60;;;1.40;98.50;;;;;;6372829;28;20023;-78
2021/01/17 08:10:04;;;;;;;5.32;4.13;;;1.40;93.30;;;;;;6372791;27;20027;-78
2021/01/17 08:13:17;;;;;;;4.47;3.47;;;1.20;93.00;;;;;;6372604;28;20030;-78
2021/01/17 08:16:17;;;;;;;3.80;3.22;;;1.30;93.30;;;;;;6373024;28;20058;-78
2021/01/17 08:19:35;;;;;;;4.30;3.90;;;2.10;92.90;;;;;;6372604;27;20461;-78
2021/01/17 08:22:43;;;;;;;4.07;3.20;;;3.00;98.70;;;;;;6372979;27;20023;-78
2021/01/17 08:25:48;;;;;;;4.22;3.70;;;1.20;92.60;;;;;;6372651;27;20023;-78
2021/01/17 08:28:49;;;;;;;6.63;4.97;;;2.60;93.00;;;;;;6372645;28;20453;-78
2021/01/17 08:31:50;;;;;;;7.25;5.90;;;2.60;93.40;;;;;;6339685;27;20049;-79
2021/01/17 08:34:50;;;;;;;8.98;7.03;;;1.30;99.90;;;;;;6377697;27;20031;-78
2021/01/17 08:38:11;;;;;;;6.45;5.00;;;2.10;99.00;;;;;;6377405;27;20106;-79
2021/01/17 08:41:11;;;;;;;7.93;5.38;;;1.20;93.00;;;;;;6377523;27;20023;-78
2021/01/17 08:44:13;;;;;;;5.32;4.57;;;1.70;93.30;;;;;;6342101;27;20036;-78
2021/01/17 08:47:20;;;;;;;8.33;5.90;;;2.40;93.80;;;;;;6377479;27;20023;-76
2021/01/17 08:50:35;;;;;;;8.27;6.63;;;1.30;99.90;;;;;;6377082;27;20027;-78
2021/01/17 08:53:36;;;;;;;10.13;8.85;;;2.60;93.40;;;;;;6377279;27;20046;-80
2021/01/17 08:56:36;;;;;;;11.63;10.43;;;2.50;93.50;;;;;;6376958;27;20368;-78
2021/01/17 08:59:37;;;;;;;5.78;4.25;;;1.20;92.80;;;;;;6358468;27;20023;-78
2021/01/17 09:02:38;;;;;;;6.10;5.47;;;2.70;93.70;;;;;;6377030;27;20019;-78
2021/01/17 09:05:39;;;;;;;4.72;3.92;;;;;;;;;;6376554;27;20054;-79
2021/01/17 09:08:41;;;;;;;7.38;6.22;;;1.50;97.00;;;;;;6358540;27;20047;-78
2021/01/17 09:11:41;;;;;;;5.28;4.75;;;1.40;93.00;;;;;;6358238;27;20034;-78
2021/01/17 09:14:42;;;;;;;4.88;4.35;;;2.70;93.30;;;;;;6376717;27;20023;-78
2021/01/17 09:17:43;;;;;;;5.82;4.78;;;3.10;93.30;;;;;;6376656;27;20052;-75
2021/01/17 09:20:44;;;;;;;8.25;5.43;;;2.70;92.90;;;;;;6376518;27;20419;-75
2021/01/17 09:23:45;;;;;;;7.82;6.18;;;2.90;93.10;;;;;;6358179;27;20027;-76
2021/01/17 09:26:46;;;;;;;5.60;4.55;;;1.60;99.90;;;;;;6358281;27;20047;-78
2021/01/17 09:29:47;;;;;;;4.63;3.73;;;1.90;92.10;;;;;;6376263;27;20460;-78
2021/01/17 09:32:48;;;;;;;6.40;5.13;;;3.30;92.50;;;;;;6340753;27;20030;-78
2021/01/17 09:35:49;;;;;;;8.57;7.30;;;2.80;91.90;;;;;;6376069;27;20031;-78
2021/01/17 09:38:50;;;;;;;8.93;7.10;;;2.60;92.30;;;;;;6375894;27;20046;-76
2021/01/17 09:41:50;;;;;;;8.57;7.13;;;2.40;99.90;;;;;;6375818;27;20030;-75
2021/01/17 09:44:58;;;;;;;8.40;7.22;;;3.30;97.10;;;;;;6357495;27;20023;-75
2021/01/17 09:48:00;;;;;;;7.80;7.00;;;2.30;91.60;;;;;;6376015;27;20026;-76
2021/01/17 09:51:04;;;;;;;8.10;7.22;;;2.80;91.70;;;;;;6375481;27;20410;-75
2021/01/17 09:54:05;;;;;;;9.63;8.50;;;2.40;91.40;;;;;;6340570;27;20051;-78
2021/01/17 09:57:22;;;;;;;10.38;7.57;;;2.80;91.40;;;;;;6375661;27;20023;-76
2021/01/17 10:00:23;;;;;;;12.95;8.32;;;2.80;91.40;;;;;;6375545;27;20458;-75
2021/01/17 10:03:27;;;;;;;8.88;6.03;;;3.90;91.60;;;;;;6375501;27;20056;-75
2021/01/17 10:06:32;;;;;;;7.75;4.82;;;4.10;91.70;;;;;;6356861;27;20679;-75
2021/01/17 10:09:33;;;;;;;6.88;5.47;;;2.70;91.40;;;;;;6357070;27;20039;-75
2021/01/17 10:12:33;;;;;;;7.20;5.35;;;2.80;99.90;;;;;;6375160;27;20671;-75
2021/01/17 10:15:35;;;;;;;12.48;9.55;;;3.40;96.20;;;;;;6375315;27;20111;-75
2021/01/17 10:18:36;;;;;;;21.98;19.60;;;3.30;91.20;;;;;;6375005;27;20027;-78
2021/01/17 10:21:38;;;;;;;7.95;7.15;;;3.20;90.90;;;;;;6375191;27;20019;-75
2021/01/17 10:24:39;;;;;;;7.82;6.80;;;4.50;91.10;;;;;;6374888;27;20022;-75
2021/01/17 10:27:40;;;;;;;5.75;4.90;;;4.10;91.00;;;;;;6375183;27;20027;-75
2021/01/17 10:30:41;;;;;;;6.18;5.35;;;3.20;90.70;;;;;;6339566;27;20024;-75
2021/01/17 10:33:41;;;;;;;8.00;6.82;;;3.10;90.90;;;;;;6374695;27;20019;-75
2021/01/17 10:36:42;;;;;;;6.47;5.88;;;3.90;91.20;;;;;;6356717;27;20026;-74
2021/01/17 10:39:42;;;;;;;5.32;4.50;;;3.40;91.40;;;;;;6356243;27;20027;-77
2021/01/17 10:42:43;;;;;;;5.13;4.63;;;2.80;91.10;;;;;;6374592;27;20097;-79
2021/01/17 10:45:44;;;;;;;8.02;5.80;;;4.00;91.40;;;;;;6355944;27;20410;-78
2021/01/17 10:48:52;;;;;;;8.32;6.78;;;2.80;91.00;;;;;;6339297;27;20019;-75
2021/01/17 10:51:53;;;;;;;7.07;5.88;;;2.80;94.50;;;;;;6374270;27;20045;-75
2021/01/17 10:54:54;;;;;;;5.30;4.80;;;2.90;90.90;;;;;;6338388;27;20015;-77
2021/01/17 10:57:54;;;;;;;6.20;4.90;;;3.00;90.80;;;;;;6339006;27;20027;-75
2021/01/17 11:00:56;;;;;;;5.00;4.43;;;3.40;90.90;;;;;;6338950;27;20019;-75
2021/01/17 11:03:57;;;;;;;5.00;3.95;;;;;;;;;;6374001;27;20047;-77
2021/01/17 11:06:58;;;;;;;6.78;3.67;;;3.20;94.00;;;;;;6355892;27;20011;-75
2021/01/17 11:09:58;;;;;;;5.30;4.80;;;3.30;90.40;;;;;;6355541;27;20129;-75
2021/01/17 11:12:59;;;;;;;4.75;4.20;;;4.10;90.40;;;;;;6373722;27;20043;-75
2021/01/17 11:16:00;;;;;;;4.55;3.97;;;4.00;90.50;;;;;;6373801;27;20019;-77
2021/01/17 11:19:00;;;;;;;5.05;3.85;;;3.30;90.20;;;;;;6373513;27;20072;-76
2021/01/17 11:22:01;;;;;;;5.75;4.70;;;3.20;90.40;;;;;;6373626;27;20027;-74
2021/01/17 11:25:03;;;;;;;7.65;5.82;;;3.20;99.90;;;;;;6373468;27;20023;-75
2021/01/17 11:28:04;;;;;;;12.65;8.07;;;3.30;90.40;;;;;;6354926;27;20030;-75
2021/01/17 11:31:15;;;;;;;5.68;4.53;;;3.40;90.50;;;;;;6373253;27;20035;-77
2021/01/17 11:34:16;;;;;;;5.20;3.80;;;3.40;90.20;;;;;;6373431;27;20056;-75
2021/01/17 11:37:16;;;;;;;4.47;3.65;;;3.40;90.10;;;;;;6373249;27;20367;-76
2021/01/17 11:40:18;;;;;;;4.22;3.72;;;3.50;99.90;;;;;;6373406;27;20060;-77
2021/01/17 11:43:21;;;;;;;4.82;4.32;;;3.40;90.10;;;;;;6373148;27;20033;-75
2021/01/17 11:46:21;;;;;;;4.00;3.60;;;3.50;90.30;;;;;;6373053;27;20027;-76
2021/01/17 11:49:25;;;;;;;6.68;4.35;;;3.70;90.10;;;;;;6373378;27;20031;-78
2021/01/17 11:52:26;;;;;;;5.80;4.40;;;4.30;90.30;;;;;;6372927;27;20126;-76
2021/01/17 11:55:27;;;;;;;6.13;5.00;;;3.70;90.00;;;;;;6373175;27;20031;-76
2021/01/17 11:58:33;;;;;;;7.07;4.88;;;4.20;95.10;;;;;;6372814;27;20034;-76
2021/01/17 12:01:33;;;;;;;6.03;5.28;;;3.50;90.10;;;;;;6354733;28;20026;-76
2021/01/17 12:04:34;;;;;;;8.38;6.85;;;4.60;90.20;;;;;;6373314;27;20357;-77
2021/01/17 12:07:35;;;;;;;5.63;5.05;;;3.60;90.20;;;;;;6343145;27;20039;-75
2021/01/17 12:10:36;;;;;;;5.60;4.82;;;3.90;90.10;;;;;;6377976;27;20038;-76
2021/01/17 12:13:37;;;;;;;5.30;4.80;;;3.40;90.20;;;;;;6377939;27;20027;-76
2021/01/17 12:16:52;;;;;;;17.48;14.48;;;3.50;90.00;;;;;;6378078;27;20035;-76
2021/01/17 12:19:53;;;;;;;9.88;7.03;;;3.30;89.90;;;;;;6378132;27;20019;-77
2021/01/17 12:22:54;;;;;;;5.30;4.80;;;3.60;90.20;;;;;;6377875;27;20034;-77
2021/01/17 12:25:54;;;;;;;5.03;4.32;;;4.00;90.20;;;;;;6377721;27;20380;-76
2021/01/17 12:28:55;;;;;;;4.45;4.05;;;4.40;90.50;;;;;;6377741;27;20058;-78
2021/01/17 12:31:55;;;;;;;5.20;4.10;;;3.80;90.40;;;;;;6377620;27;20075;-76
2021/01/17 12:34:56;;;;;;;4.05;3.33;;;3.60;90.20;;;;;;6377763;27;20030;-76
2021/01/17 12:37:57;;;;;;;3.65;3.35;;;3.90;90.20;;;;;;6377462;27;20030;-76
2021/01/17 12:40:57;;;;;;;6.20;3.60;;;3.60;90.10;;;;;;6377773;27;20015;-76
2021/01/17 12:43:58;;;;;;;9.00;4.13;;;3.50;89.90;;;;;;6377536;27;20034;-76
2021/01/17 12:46:59;;;;;;;4.30;3.90;;;3.60;99.90;;;;;;6377544;27;20410;-76
2021/01/17 12:49:59;;;;;;;4.03;3.63;;;4.40;95.10;;;;;;6377594;27;20035;-77
2021/01/17 12:53:00;;;;;;;4.78;4.28;;;3.50;90.40;;;;;;6377092;27;20428;-76
2021/01/17 12:56:00;;;;;;;4.90;4.40;;;3.70;90.50;;;;;;6377194;27;20030;-76
2021/01/17 12:59:01;;;;;;;4.57;4.03;;;3.40;90.60;;;;;;6376958;27;20094;-76
2021/01/17 13:02:03;;;;;;;4.97;4.30;;;3.20;90.70;;;;;;6376962;27;20061;-77
2021/01/17 13:05:04;;;;;;;5.68;4.80;;;3.40;90.80;;;;;;6376774;27;20540;-77
2021/01/17 13:08:05;;;;;;;5.65;4.95;;;3.20;91.00;;;;;;6376859;27;20027;-76
2021/01/17 13:11:06;;;;;;;5.57;4.82;;;3.20;91.00;;;;;;6376652;27;20023;-76
2021/01/17 13:14:07;;;;;;;9.90;6.87;;;4.20;91.30;;;;;;6376957;27;20026;-78
2021/01/17 13:17:08;;;;;;;8.13;6.90;;;3.00;91.40;;;;;;6375880;27;20464;-76
2021/01/17 13:20:09;;;;;;;7.78;5.88;;;3.60;91.60;;;;;;6376465;27;20023;-76
2021/01/17 13:23:09;;;;;;;7.53;6.25;;;2.90;99.90;;;;;;6376465;27;20109;-77
2021/01/17 13:26:19;;;;;;;9.02;6.85;;;3.80;91.90;;;;;;6376586;27;20397;-76
2021/01/17 13:29:20;;;;;;;7.15;6.22;;;2.70;92.20;;;;;;6376349;27;20050;-76
2021/01/17 13:32:21;;;;;;;7.13;5.82;;;2.60;92.10;;;;;;6376185;27;20027;-76
2021/01/17 13:35:22;;;;;;;5.85;5.18;;;2.70;92.20;;;;;;6376134;27;20034;-77
2021/01/17 13:38:23;;;;;;;6.40;5.30;;;2.60;99.90;;;;;;6375948;27;20098;-76
2021/01/17 13:41:24;;;;;;;6.53;5.55;;;3.10;97.00;;;;;;6357768;27;20096;-77
2021/01/17 13:44:24;;;;;;;7.15;6.20;;;2.90;92.20;;;;;;6375922;27;20019;-76
2021/01/17 13:47:27;;;;;;;8.85;7.68;;;3.30;92.30;;;;;;6376023;27;20027;-77
2021/01/17 13:50:28;;;;;;;12.18;9.68;;;3.40;92.20;;;;;;6375488;27;20019;-76
2021/01/17 13:53:28;;;;;;;13.57;9.95;;;2.80;91.90;;;;;;6375720;27;20368;-76
2021/01/17 13:56:29;;;;;;;14.90;10.52;;;3.10;91.90;;;;;;6376085;27;20094;-76
2021/01/17 13:59:30;;;;;;;11.20;8.15;;;2.80;91.90;;;;;;6375578;27;20025;-76
2021/01/17 14:02:30;;;;;;;13.02;10.30;;;2.90;91.80;;;;;;6375558;27;20019;-76
2021/01/17 14:05:31;;;;;;;11.63;10.25;;;3.40;91.90;;;;;;6375122;27;20101;-75
2021/01/17 14:08:31;;;;;;;10.57;8.20;;;3.70;92.00;;;;;;6375463;27;20461;-76
2021/01/17 14:11:32;;;;;;;12.70;8.15;;;3.80;92.20;;;;;;6375177;27;20105;-78
2021/01/17 14:14:33;;;;;;;9.50;8.15;;;2.50;99.90;;;;;;6375633;27;20051;-77
2021/01/17 14:17:34;;;;;;;11.85;9.27;;;2.50;92.00;;;;;;6375266;27;20027;-77
2021/01/17 14:20:35;;;;;;;7.53;6.25;;;2.80;92.10;;;;;;6375274;27;20413;-76
2021/01/17 14:23:35;;;;;;;9.13;6.47;;;2.70;92.10;;;;;;6375241;27;20106;-76
2021/01/17 14:26:36;;;;;;;7.25;5.75;;;3.60;92.70;;;;;;6375119;27;20055;-77
2021/01/17 14:29:37;;;;;;;6.80;5.25;;;2.60;92.40;;;;;;6374050;27;20368;-77
2021/01/17 14:32:38;;;;;;;12.23;10.73;;;2.30;97.20;;;;;;6374811;27;20027;-76
2021/01/17 14:35:39;;;;;;;8.50;6.72;;;2.30;92.60;;;;;;6374936;27;20026;-76
2021/01/17 14:38:39;;;;;;;8.52;7.50;;;3.10;92.60;;;;;;6374686;27;20062;-76
2021/01/17 14:41:40;;;;;;;9.48;6.63;;;3.20;92.70;;;;;;6374777;27;20441;-76
2021/01/17 14:44:40;;;;;;;7.90;6.18;;;2.90;92.80;;;;;;6374478;27;20023;-77
2021/01/17 14:47:41;;;;;;;7.63;6.05;;;2.90;92.70;;;;;;6374416;27;20064;-77
2021/01/17 14:50:42;;;;;;;23.40;15.73;;;2.00;99.90;;;;;;6355964;27;20046;-76
2021/01/17 14:53:42;;;;;;;17.83;11.98;;;3.50;93.00;;;;;;6373981;27;20084;-76
2021/01/17 14:56:43;;;;;;;13.43;9.38;;;2.40;93.10;;;;;;6374274;27;20023;-76
2021/01/17 14:59:44;;;;;;;9.35;7.68;;;3.20;93.50;;;;;;6373963;27;20422;-76
2021/01/17 15:02:44;;;;;;;10.00;6.95;;;2.40;93.50;;;;;;6374252;27;20068;-76
2021/01/17 15:05:45;;;;;;;7.82;5.95;;;;;;;;;;6374144;27;20043;-76
2021/01/17 15:08:46;;;;;;;7.80;5.95;;;1.80;97.10;;;;;;6373893;27;20027;-77
2021/01/17 15:11:47;;;;;;;7.70;5.88;;;1.80;93.90;;;;;;6355434;27;20035;-76
2021/01/17 15:14:47;;;;;;;7.28;5.70;;;2.00;93.90;;;;;;6373591;27;20064;-77
2021/01/17 15:17:48;;;;;;;6.45;5.40;;;3.30;94.30;;;;;;6373711;27;20022;-76
2021/01/17 15:20:48;;;;;;;9.80;6.97;;;2.70;94.20;;;;;;6373633;27;20471;-76
2021/01/17 15:23:49;;;;;;;9.25;8.25;;;2.00;94.20;;;;;;6373621;27;20020;-76
2021/01/17 15:26:52;;;;;;;10.65;9.30;;;1.70;94.30;;;;;;6373434;27;20019;-77
2021/01/17 15:29:53;;;;;;;10.48;9.00;;;1.50;94.20;;;;;;6373558;27;20105;-76
2021/01/17 15:32:54;;;;;;;9.68;8.60;;;1.60;94.20;;;;;;6373369;27;20072;-76
2021/01/17 15:35:55;;;;;;;14.27;9.70;;;1.50;94.30;;;;;;6373386;27;20129;-77
2021/01/17 15:38:56;;;;;;;13.45;10.52;;;2.60;94.60;;;;;;6354825;27;20551;-75
2021/01/17 15:41:56;;;;;;;9.88;8.43;;;1.40;99.90;;;;;;6373286;27;20031;-75
2021/01/17 15:44:57;;;;;;;10.02;8.90;;;2.20;99.50;;;;;;6373236;27;20044;-76
2021/01/17 15:47:59;;;;;;;11.50;9.02;;;1.60;94.50;;;;;;6372967;27;20463;-76
2021/01/17 15:50:59;;;;;;;7.38;6.28;;;2.00;95.00;;;;;;6373031;27;20036;-75
2021/01/17 15:54:00;;;;;;;14.45;11.95;;;1.40;94.70;;;;;;6373245;27;20117;-76
2021/01/17 15:57:01;;;;;;;15.32;12.80;;;1.30;94.80;;;;;;6373165;27;20015;-76
2021/01/17 16:00:04;;;;;;;17.83;13.60;;;1.50;94.90;;;;;;6373010;27;20023;-75